Time;durP1;ratioP1;P1;durP2;ratioP2;P2;SDS_P1;SDS_P2;PMS_P1;PMS_P2;Temp;Humidity;BMP_temperature;BMP_pressure;BME280_temperature;BME280_humidity;BME280_pressure;Samples;Min_cycle;Max_cycle;Signal;HPM_P1;HPM_P2
2022/07/06 00:00:55;;;;;;;13.70;5.40;;;;;24.20;97162.20;;;;110623;1255;41159;-76
2022/07/06 00:03:24;;;;;;;9.80;5.00;;;;;24.10;97169.20;;;;110692;1254;41942;-80
2022/07/06 00:05:55;;;;;;;12.30;4.50;;;;;24.00;97170.00;;;;110545;1254;41759;-80
2022/07/06 00:08:25;;;;;;;8.20;3.70;;;;;24.00;97167.80;;;;110576;1256;41162;-75
2022/07/06 00:10:55;;;;;;;10.70;4.70;;;;;23.90;97170.00;;;;110632;1254;41607;-77
2022/07/06 00:13:24;;;;;;;9.50;4.60;;;;;23.84;97162.40;;;;110817;1253;41375;-73
2022/07/06 00:15:55;;;;;;;10.70;5.00;;;;;23.70;97158.20;;;;110697;1254;41280;-68
2022/07/06 00:18:24;;;;;;;8.90;4.20;;;;;23.70;97158.00;;;;110631;1254;41285;-78
2022/07/06 00:20:54;;;;;;;10.90;4.40;;;;;23.70;97155.80;;;;110835;1253;41152;-79
2022/07/06 00:23:25;;;;;;;10.60;4.50;;;;;23.60;97155.80;;;;110832;1253;41373;-79
2022/07/06 00:25:56;;;;;;;10.50;4.50;;;;;23.70;97152.80;;;;110898;1251;42357;-79
2022/07/06 00:28:26;;;;;;;15.30;4.80;;;;;23.60;97149.80;;;;110766;1251;41131;-80
2022/07/06 00:30:56;;;;;;;9.90;3.90;;;;;23.60;97147.60;;;;110567;1254;41148;-74
2022/07/06 00:33:27;;;;;;;;;;;;;23.50;97151.80;;;;110706;1254;40900;-80
2022/07/06 00:35:58;;;;;;;10.70;4.80;;;;;23.50;97147.60;;;;110739;1251;42168;-79
2022/07/06 00:38:28;;;;;;;10.60;4.60;;;;;23.50;97157.60;;;;110862;1253;40957;-80
2022/07/06 00:40:58;;;;;;;9.40;4.00;;;;;23.50;97158.00;;;;110497;1254;41320;-79
2022/07/06 00:43:28;;;;;;;10.70;4.30;;;;;23.40;97159.20;;;;110935;1253;41163;-80
2022/07/06 00:45:58;;;;;;;10.60;5.00;;;;;23.30;97153.40;;;;110731;1253;41121;-75
2022/07/06 00:48:27;;;;;;;11.00;4.50;;;;;23.30;97161.60;;;;110631;1254;41262;-77
2022/07/06 00:50:58;;;;;;;9.90;4.00;;;;;23.20;97164.80;;;;110709;1254;41153;-68
2022/07/06 00:53:29;;;;;;;9.00;4.10;;;;;23.20;97165.00;;;;110602;1254;40904;-82
2022/07/06 00:55:59;;;;;;;10.40;4.70;;;;;23.18;97168.80;;;;110628;1254;41630;-81
2022/07/06 00:58:29;;;;;;;10.70;4.70;;;;;23.14;97171.20;;;;110669;1254;41159;-76
2022/07/06 01:00:59;;;;;;;13.20;4.90;;;;;23.10;97172.80;;;;110601;1254;41271;-71
2022/07/06 01:03:28;;;;;;;13.60;4.80;;;;;23.10;97174.60;;;;110698;1254;41616;-72
2022/07/06 01:05:58;;;;;;;12.50;4.20;;;;;23.02;97178.00;;;;110576;1253;41607;-78
2022/07/06 01:08:28;;;;;;;10.30;5.00;;;;;22.96;97187.00;;;;110628;1254;41341;-79
2022/07/06 01:10:59;;;;;;;12.40;4.80;;;;;22.90;97193.60;;;;110646;1254;41162;-80
2022/07/06 01:13:32;;;;;;;9.90;4.80;;;;;22.90;97194.80;;;;110581;1255;41260;-82
2022/07/06 01:16:03;;;;;;;10.90;4.50;;;;;22.80;97197.00;;;;110700;1254;41273;-80
2022/07/06 01:18:34;;;;;;;11.40;4.60;;;;;22.74;97201.40;;;;110750;1254;41946;-78
2022/07/06 01:21:12;;;;;;;10.30;4.40;;;;;22.70;97206.40;;;;110666;1254;41227;-78
2022/07/06 01:23:44;;;;;;;9.50;4.40;;;;;22.62;97211.00;;;;110477;1256;41141;-72
2022/07/06 01:26:21;;;;;;;9.40;4.10;;;;;22.60;97221.00;;;;110660;1254;41192;-69
2022/07/06 01:28:52;;;;;;;8.50;3.90;;;;;22.52;97221.60;;;;110477;1255;41156;-79
2022/07/06 01:31:25;;;;;;;7.50;4.00;;;;;22.50;97228.60;;;;110522;1254;41264;-80
2022/07/06 01:33:57;;;;;;;9.30;4.10;;;;;22.50;97234.20;;;;110646;1254;41728;-77
2022/07/06 01:36:26;;;;;;;9.90;4.20;;;;;22.40;97243.40;;;;110647;1254;41145;-81
2022/07/06 01:38:58;;;;;;;8.40;3.60;;;;;22.30;97257.60;;;;110630;1254;41270;-79
2022/07/06 01:41:28;;;;;;;8.70;3.80;;;;;22.30;97271.20;;;;110703;1254;41158;-82
2022/07/06 01:43:59;;;;;;;9.20;3.60;;;;;22.30;97263.60;;;;110658;1254;43026;-79
2022/07/06 01:46:29;;;;;;;9.20;3.40;;;;;22.30;97263.00;;;;110647;1255;41319;-80
2022/07/06 01:49:00;;;;;;;8.40;3.20;;;;;22.20;97261.60;;;;110646;1254;41154;-79
2022/07/06 01:51:30;;;;;;;7.20;3.40;;;;;22.20;97261.60;;;;110753;1254;41235;-79
2022/07/06 01:54:00;;;;;;;6.20;3.00;;;;;22.20;97269.80;;;;110811;1251;41281;-81
2022/07/06 01:56:31;;;;;;;7.20;2.80;;;;;22.18;97274.00;;;;110508;1254;41249;-79
2022/07/06 01:59:03;;;;;;;8.30;3.50;;;;;22.20;97280.00;;;;110691;1254;41137;-77
2022/07/06 02:01:33;;;;;;;7.80;3.20;;;;;22.10;97279.40;;;;110568;1254;41134;-76
2022/07/06 02:04:06;;;;;;;6.10;2.50;;;;;22.10;97277.40;;;;110598;1253;41672;-78
2022/07/06 02:06:36;;;;;;;7.40;2.50;;;;;22.20;97282.80;;;;110761;1253;41156;-81
2022/07/06 02:09:08;;;;;;;6.20;2.40;;;;;22.12;97284.00;;;;110647;1254;41640;-83
2022/07/06 02:11:39;;;;;;;5.40;2.50;;;;;22.20;97286.20;;;;110507;1254;42212;-83
2022/07/06 02:14:08;;;;;;;6.50;2.70;;;;;22.20;97290.80;;;;110675;1253;41264;-83
2022/07/06 02:16:40;;;;;;;6.80;2.50;;;;;22.20;97293.80;;;;110560;1254;41192;-87
2022/07/06 02:19:10;;;;;;;7.50;2.50;;;;;22.20;97289.80;;;;110621;1254;41715;-84
2022/07/06 02:21:41;;;;;;;7.60;2.50;;;;;22.22;97294.20;;;;110816;1254;41138;-82
2022/07/06 02:24:13;;;;;;;5.70;2.40;;;;;22.20;97301.80;;;;110475;1255;40903;-80
2022/07/06 02:26:43;;;;;;;7.60;2.60;;;;;22.16;97300.40;;;;110546;1256;41155;-83
2022/07/06 02:29:14;;;;;;;7.30;2.80;;;;;22.10;97306.60;;;;110651;1254;41270;-82
2022/07/06 02:31:44;;;;;;;6.60;2.60;;;;;22.08;97299.00;;;;110665;1254;41182;-83
2022/07/06 02:34:14;;;;;;;5.10;2.20;;;;;21.90;97303.80;;;;110479;1254;41281;-79
2022/07/06 02:36:44;;;;;;;8.40;2.60;;;;;21.80;97304.40;;;;110588;1254;41691;-78
2022/07/06 02:39:14;;;;;;;6.90;2.70;;;;;21.70;97296.80;;;;110468;1256;41163;-81
2022/07/06 02:41:44;;;;;;;5.30;2.40;;;;;21.68;97301.00;;;;110694;1254;41131;-82
2022/07/06 02:44:15;;;;;;;6.10;2.60;;;;;21.60;97307.00;;;;110701;1254;41270;-85
2022/07/06 02:46:45;;;;;;;;;;;;;21.50;97309.40;;;;110532;1253;41695;-83
2022/07/06 02:49:17;;;;;;;8.40;2.80;;;;;21.40;97307.40;;;;110621;1254;41192;-80
2022/07/06 02:51:47;;;;;;;7.60;3.20;;;;;21.30;97307.60;;;;110747;1253;41733;-82
2022/07/06 02:54:17;;;;;;;7.60;3.20;;;;;21.26;97308.20;;;;110655;1254;42320;-79
2022/07/06 02:56:52;;;;;;;9.90;2.80;;;;;21.20;97309.00;;;;110567;1254;41274;-81
2022/07/06 02:59:22;;;;;;;7.80;2.90;;;;;21.10;97310.00;;;;110559;1254;41258;-83
2022/07/06 03:01:52;;;;;;;6.80;3.00;;;;;21.10;97312.60;;;;110663;1254;41261;-83
2022/07/06 03:04:23;;;;;;;6.00;2.60;;;;;20.90;97305.20;;;;110505;1254;42546;-82
2022/07/06 03:06:54;;;;;;;8.60;2.80;;;;;20.90;97299.60;;;;110739;1254;41207;-77
2022/07/06 03:09:24;;;;;;;6.30;2.70;;;;;20.84;97298.60;;;;110660;1254;41548;-79
2022/07/06 03:11:55;;;;;;;;;;;;;20.80;97292.40;;;;110472;1254;42006;-81
2022/07/06 03:14:25;;;;;;;6.20;2.30;;;;;20.80;97289.00;;;;110672;1253;41147;-83
2022/07/06 03:16:56;;;;;;;5.70;2.40;;;;;20.82;97282.20;;;;110730;1254;40754;-83
2022/07/06 03:19:26;;;;;;;4.70;2.40;;;;;20.90;97278.40;;;;110613;1254;41159;-85
2022/07/06 03:21:58;;;;;;;6.20;2.50;;;;;20.90;97274.80;;;;110817;1253;41135;-81
2022/07/06 03:24:29;;;;;;;6.20;2.40;;;;;20.90;97274.40;;;;110733;1254;41299;-82
2022/07/06 03:26:58;;;;;;;7.10;2.60;;;;;21.00;97268.60;;;;110777;1253;41191;-82
2022/07/06 03:29:29;;;;;;;5.60;2.50;;;;;21.00;97280.20;;;;110637;1254;41166;-78
2022/07/06 03:31:58;;;;;;;5.80;2.40;;;;;21.10;97290.20;;;;110453;1257;41373;-77
2022/07/06 03:34:28;;;;;;;11.10;2.70;;;;;21.12;97292.20;;;;110599;1254;41252;-82
2022/07/06 03:36:59;;;;;;;6.70;2.70;;;;;21.20;97296.80;;;;110483;1254;43283;-82
2022/07/06 03:39:30;;;;;;;5.60;2.40;;;;;21.20;97301.40;;;;110571;1254;42174;-74
2022/07/06 03:42:01;;;;;;;5.40;2.50;;;;;21.20;97300.40;;;;110734;1251;41170;-84
2022/07/06 03:44:32;;;;;;;5.80;2.50;;;;;21.20;97306.20;;;;110654;1253;41268;-83
2022/07/06 03:47:02;;;;;;;;;;;;;21.30;97300.20;;;;110740;1254;41144;-81
2022/07/06 03:49:31;;;;;;;6.20;2.50;;;;;21.30;97290.60;;;;110501;1254;42011;-83
2022/07/06 03:52:02;;;;;;;;;;;;;21.32;97287.20;;;;110808;1251;41158;-78
2022/07/06 03:54:36;;;;;;;5.10;2.30;;;;;21.38;97289.60;;;;110609;1255;41182;-84
2022/07/06 03:57:06;;;;;;;7.00;2.70;;;;;21.40;97293.00;;;;110733;1254;41205;-84
2022/07/06 03:59:37;;;;;;;7.80;2.80;;;;;21.40;97308.80;;;;110604;1254;41157;-85
2022/07/06 04:02:08;;;;;;;7.20;2.70;;;;;21.40;97315.80;;;;110713;1254;41346;-84
2022/07/06 04:04:39;;;;;;;5.40;2.30;;;;;21.40;97309.80;;;;110681;1254;41153;-82
2022/07/06 04:07:09;;;;;;;7.10;2.70;;;;;21.48;97298.60;;;;110618;1254;41163;-78
2022/07/06 04:09:38;;;;;;;7.00;2.60;;;;;21.50;97304.20;;;;110545;1254;42448;-80
2022/07/06 04:12:08;;;;;;;;;;;;;21.50;97316.00;;;;110709;1254;41510;-84
2022/07/06 04:14:39;;;;;;;6.70;2.30;;;;;21.50;97328.40;;;;110757;1253;41165;-83
2022/07/06 04:19:57;;;;;;;6.50;2.60;;;;;21.60;97340.20;;;;110579;1254;41507;-84
2022/07/06 04:22:27;;;;;;;6.50;2.60;;;;;21.70;97346.40;;;;110543;1255;41158;-75
2022/07/06 04:24:56;;;;;;;6.40;2.80;;;;;21.70;97344.40;;;;110668;1254;41266;-84
2022/07/06 04:27:26;;;;;;;8.10;3.30;;;;;21.60;97349.20;;;;110765;1251;41255;-76
2022/07/06 04:29:55;;;;;;;7.00;2.90;;;;;21.50;97352.00;;;;110568;1254;41135;-83
2022/07/06 04:32:25;;;;;;;8.50;3.00;;;;;21.40;97355.80;;;;110692;1254;41601;-82
2022/07/06 04:34:54;;;;;;;8.30;3.40;;;;;21.32;97361.00;;;;110709;1254;41154;-83
2022/07/06 04:37:23;;;;;;;7.30;3.00;;;;;21.30;97360.20;;;;110569;1254;41298;-83
2022/07/06 04:39:53;;;;;;;7.20;3.20;;;;;21.20;97358.00;;;;110770;1254;42236;-83
2022/07/06 04:42:23;;;;;;;11.20;3.80;;;;;21.20;97359.20;;;;110688;1252;41279;-83
2022/07/06 04:44:53;;;;;;;7.50;3.50;;;;;21.10;97355.20;;;;110564;1254;41969;-83
2022/07/06 04:47:22;;;;;;;7.10;2.70;;;;;21.08;97349.40;;;;110588;1254;41273;-77
2022/07/06 04:49:51;;;;;;;14.20;3.10;;;;;21.00;97347.40;;;;110451;1257;41177;-75
2022/07/06 04:52:21;;;;;;;7.70;3.30;;;;;21.00;97344.60;;;;110514;1254;41204;-76
2022/07/06 04:54:51;;;;;;;10.60;2.70;;;;;21.00;97345.20;;;;110450;1256;42374;-76
2022/07/06 04:57:20;;;;;;;8.10;3.10;;;;;21.00;97336.60;;;;110577;1254;41960;-74
2022/07/06 04:59:50;;;;;;;5.70;2.40;;;;;21.10;97337.20;;;;110660;1254;42097;-80
2022/07/06 05:02:19;;;;;;;5.90;2.40;;;;;21.20;97328.40;;;;110463;1255;42044;-77
2022/07/06 05:04:49;;;;;;;5.90;2.40;;;;;21.34;97319.60;;;;110527;1254;41270;-75
2022/07/06 05:07:19;;;;;;;6.40;2.20;;;;;21.42;97320.20;;;;110579;1254;41944;-75
2022/07/06 05:09:48;;;;;;;6.90;2.80;;;;;21.50;97318.40;;;;110579;1253;41153;-71
2022/07/06 05:12:20;;;;;;;8.80;2.60;;;;;21.60;97321.60;;;;110720;1254;41708;-71
2022/07/06 05:14:49;;;;;;;5.60;2.30;;;;;21.70;97322.20;;;;110520;1256;41399;-78
2022/07/06 05:17:19;;;;;;;6.40;2.50;;;;;21.80;97317.80;;;;110470;1254;41604;-75
2022/07/06 05:19:53;;;;;;;4.10;2.00;;;;;21.92;97317.80;;;;110553;1253;41159;-78
2022/07/06 05:22:24;;;;;;;5.70;2.50;;;;;22.10;97318.00;;;;110658;1254;41159;-75
2022/07/06 05:24:53;;;;;;;7.10;2.50;;;;;22.30;97320.40;;;;110478;1254;41645;-75
2022/07/06 05:27:24;;;;;;;5.10;2.20;;;;;22.50;97323.20;;;;110486;1254;41145;-77
2022/07/06 05:29:53;;;;;;;4.90;2.10;;;;;22.70;97320.40;;;;110612;1254;41621;-73
2022/07/06 05:32:22;;;;;;;5.80;2.50;;;;;22.80;97316.40;;;;110641;1256;41270;-80
2022/07/06 05:34:52;;;;;;;9.70;2.40;;;;;22.80;97313.20;;;;110555;1254;40877;-71
2022/07/06 05:37:22;;;;;;;4.80;2.10;;;;;22.80;97305.00;;;;110413;1255;41392;-78
2022/07/06 05:39:52;;;;;;;6.20;2.30;;;;;22.90;97303.40;;;;110649;1254;41147;-78
2022/07/06 05:42:21;;;;;;;6.90;2.20;;;;;22.84;97302.60;;;;110677;1254;41274;-79
2022/07/06 05:44:55;;;;;;;5.90;2.50;;;;;22.88;97304.40;;;;110701;1253;41904;-67
2022/07/06 05:50:12;;;;;;;5.30;2.10;;;;;22.90;97301.80;;;;110602;1253;41873;-69
2022/07/06 05:52:56;;;;;;;5.10;2.20;;;;;22.90;97304.40;;;;110557;1254;41164;-71
2022/07/06 05:55:26;;;;;;;7.20;2.80;;;;;22.90;97315.40;;;;110540;1255;41280;-75
2022/07/06 05:57:55;;;;;;;6.40;2.80;;;;;22.90;97317.80;;;;110399;1255;41163;-68
2022/07/06 06:00:27;;;;;;;5.50;2.50;;;;;22.90;97323.20;;;;110484;1253;41141;-70
2022/07/06 06:02:58;;;;;;;5.40;2.30;;;;;22.90;97322.40;;;;110634;1254;41139;-75
2022/07/06 06:05:27;;;;;;;5.50;2.50;;;;;22.90;97327.20;;;;110545;1256;41147;-65
2022/07/06 06:08:01;;;;;;;4.80;2.10;;;;;22.80;97330.60;;;;110534;1252;42528;-67
2022/07/06 06:10:30;;;;;;;6.30;2.70;;;;;22.78;97327.60;;;;110538;1254;41659;-67
2022/07/06 06:13:02;;;;;;;6.80;2.80;;;;;22.80;97327.20;;;;110517;1254;41950;-68
2022/07/06 06:15:33;;;;;;;9.20;4.10;;;;;22.70;97328.80;;;;110316;1255;42306;-67
2022/07/06 06:18:03;;;;;;;8.20;3.20;;;;;22.76;97328.00;;;;110387;1253;42033;-68
2022/07/06 06:20:33;;;;;;;6.60;2.60;;;;;22.70;97327.60;;;;110609;1254;41270;-68
2022/07/06 06:23:04;;;;;;;7.40;2.80;;;;;22.80;97326.00;;;;110631;1254;41334;-67
2022/07/06 06:25:35;;;;;;;8.10;2.70;;;;;22.86;97327.20;;;;110359;1254;41167;-68
2022/07/06 06:28:06;;;;;;;8.50;3.10;;;;;22.94;97331.20;;;;110755;1253;41266;-67
2022/07/06 06:30:36;;;;;;;6.90;2.50;;;;;23.00;97332.80;;;;110574;1254;41189;-66
2022/07/06 06:33:09;;;;;;;6.60;2.80;;;;;23.00;97327.80;;;;110687;1253;41140;-67
2022/07/06 06:35:45;;;;;;;6.50;2.80;;;;;23.00;97329.60;;;;110441;1254;41616;-68
2022/07/06 06:38:16;;;;;;;7.10;2.70;;;;;23.10;97329.60;;;;110509;1254;41305;-67
2022/07/06 06:40:45;;;;;;;8.40;3.30;;;;;23.18;97333.60;;;;110527;1255;41186;-68
2022/07/06 06:43:15;;;;;;;6.80;2.80;;;;;23.20;97333.40;;;;110499;1253;41528;-67
2022/07/06 06:45:53;;;;;;;9.00;3.10;;;;;23.06;97336.60;;;;110505;1255;41193;-69
2022/07/06 06:48:22;;;;;;;7.00;3.10;;;;;22.90;97340.20;;;;110527;1253;41499;-67
2022/07/06 06:50:52;;;;;;;6.90;3.10;;;;;22.72;97344.00;;;;110371;1256;41278;-66
2022/07/06 06:53:21;;;;;;;6.50;2.90;;;;;22.60;97345.80;;;;110480;1254;41786;-67
2022/07/06 06:55:50;;;;;;;9.60;3.40;;;;;22.50;97350.20;;;;110572;1253;41417;-66
2022/07/06 06:58:19;;;;;;;9.30;2.70;;;;;22.40;97344.40;;;;110503;1253;41320;-67
2022/07/06 07:00:49;;;;;;;6.20;2.90;;;;;22.30;97348.00;;;;110435;1254;41165;-68
2022/07/06 07:03:19;;;;;;;10.00;3.40;;;;;22.30;97345.60;;;;110517;1254;41145;-67
2022/07/06 07:05:48;;;;;;;7.90;3.30;;;;;22.20;97350.00;;;;110510;1254;41272;-68
2022/07/06 07:08:17;;;;;;;7.30;3.30;;;;;22.10;97351.60;;;;110518;1253;41595;-68
2022/07/06 07:10:47;;;;;;;7.30;3.20;;;;;21.90;97352.60;;;;110350;1255;41265;-68
2022/07/06 07:13:16;;;;;;;6.60;2.70;;;;;21.70;97353.80;;;;110448;1254;41183;-68
2022/07/06 07:15:45;;;;;;;6.80;2.90;;;;;21.70;97351.40;;;;110486;1253;42538;-68
2022/07/06 07:18:14;;;;;;;9.10;3.20;;;;;21.70;97345.20;;;;110527;1254;41196;-68
2022/07/06 07:20:44;;;;;;;8.40;2.80;;;;;21.70;97336.20;;;;110505;1253;41494;-68
2022/07/06 07:23:13;;;;;;;8.10;3.40;;;;;21.80;97338.00;;;;110516;1253;41134;-67
2022/07/06 07:25:42;;;;;;;7.60;3.40;;;;;21.82;97341.80;;;;110530;1253;41840;-68
2022/07/06 07:28:11;;;;;;;7.60;3.10;;;;;21.90;97344.60;;;;110526;1253;41332;-66
2022/07/06 07:30:40;;;;;;;7.40;3.20;;;;;21.90;97348.40;;;;110224;1253;358135;-67
2022/07/06 07:33:10;;;;;;;6.00;2.70;;;;;21.90;97346.60;;;;110523;1253;41154;-68
2022/07/06 07:35:39;;;;;;;7.20;2.90;;;;;21.90;97348.80;;;;110519;1254;41182;-67
2022/07/06 07:38:08;;;;;;;7.50;3.10;;;;;21.80;97352.20;;;;110532;1254;41335;-70
2022/07/06 07:40:38;;;;;;;8.20;3.00;;;;;21.80;97347.40;;;;110491;1254;41151;-68
2022/07/06 07:43:07;;;;;;;6.70;3.20;;;;;21.80;97351.00;;;;110351;1255;41394;-67
2022/07/06 07:45:37;;;;;;;7.50;3.20;;;;;21.80;97348.20;;;;110550;1253;41267;-67
2022/07/06 07:48:06;;;;;;;6.40;2.80;;;;;21.80;97352.40;;;;110542;1251;41947;-68
2022/07/06 07:50:35;;;;;;;6.80;2.60;;;;;21.80;97352.20;;;;110564;1253;41713;-66
2022/07/06 07:53:05;;;;;;;8.40;3.20;;;;;21.80;97349.40;;;;110367;1254;41955;-68
2022/07/06 07:55:34;;;;;;;6.70;2.70;;;;;21.82;97349.60;;;;110525;1254;41157;-68
2022/07/06 07:58:09;;;;;;;6.60;2.80;;;;;21.84;97346.40;;;;110448;1253;41471;-67
2022/07/06 08:00:39;;;;;;;7.40;3.50;;;;;21.84;97343.80;;;;110527;1253;41399;-67
2022/07/06 08:03:08;;;;;;;7.40;3.40;;;;;21.80;97349.40;;;;110568;1253;41388;-68
2022/07/06 08:05:38;;;;;;;9.00;3.40;;;;;21.70;97343.20;;;;110430;1255;41198;-67
2022/07/06 08:08:07;;;;;;;7.90;3.20;;;;;21.70;97343.20;;;;110438;1254;42122;-68
2022/07/06 08:10:36;;;;;;;7.60;3.10;;;;;21.60;97346.00;;;;110428;1254;41646;-67
2022/07/06 08:13:26;;;;;;;6.70;3.10;;;;;21.60;97343.80;;;;110474;1253;41297;-69
2022/07/06 08:15:55;;;;;;;7.50;2.50;;;;;21.70;97350.40;;;;110440;1254;42107;-68
2022/07/06 08:18:24;;;;;;;6.00;2.70;;;;;21.70;97350.00;;;;110438;1253;41275;-69
2022/07/06 08:20:56;;;;;;;7.10;2.60;;;;;21.80;97347.60;;;;110563;1253;41255;-67
2022/07/06 08:23:45;;;;;;;7.40;3.00;;;;;21.82;97348.80;;;;110483;1253;41271;-67
2022/07/06 08:26:15;;;;;;;8.30;3.60;;;;;21.80;97351.20;;;;110503;1253;41175;-68
2022/07/06 08:28:45;;;;;;;6.10;2.60;;;;;21.90;97353.20;;;;110565;1253;41142;-67
2022/07/06 08:31:14;;;;;;;6.70;2.70;;;;;21.80;97353.00;;;;110632;1254;42808;-68
2022/07/06 08:34:04;;;;;;;6.40;2.60;;;;;21.92;97352.80;;;;110486;1254;41160;-68
2022/07/06 08:36:33;;;;;;;5.90;2.60;;;;;22.00;97354.60;;;;110467;1254;41301;-65
2022/07/06 08:39:03;;;;;;;6.50;2.60;;;;;22.02;97352.60;;;;110362;1256;41156;-66
2022/07/06 08:41:32;;;;;;;6.80;2.80;;;;;22.08;97361.40;;;;110498;1253;41149;-67
2022/07/06 08:44:02;;;;;;;5.90;2.50;;;;;22.00;97362.80;;;;110424;1254;41614;-67
2022/07/06 08:46:32;;;;;;;5.70;2.40;;;;;21.92;97363.80;;;;110419;1254;42406;-66
2022/07/06 08:49:01;;;;;;;7.60;2.70;;;;;21.90;97363.40;;;;110341;1256;41270;-68
2022/07/06 08:51:31;;;;;;;5.20;2.50;;;;;22.00;97363.60;;;;110382;1254;41140;-67
2022/07/06 08:54:00;;;;;;;6.40;2.40;;;;;21.90;97366.60;;;;110305;1256;41280;-66
2022/07/06 08:56:29;;;;;;;6.50;2.80;;;;;21.96;97363.20;;;;110401;1254;41264;-67
2022/07/06 08:58:59;;;;;;;7.20;3.10;;;;;22.00;97361.80;;;;110545;1253;41627;-67
2022/07/06 09:01:28;;;;;;;8.60;3.00;;;;;22.10;97361.20;;;;110326;1256;42309;-68
2022/07/06 09:04:00;;;;;;;6.10;2.60;;;;;22.00;97362.60;;;;110517;1254;41273;-67
2022/07/06 09:06:30;;;;;;;7.40;2.60;;;;;22.00;97364.20;;;;110551;1254;41276;-67
2022/07/06 09:08:59;;;;;;;7.40;2.60;;;;;22.00;97363.40;;;;110445;1254;41636;-67
2022/07/06 09:11:29;;;;;;;6.20;2.70;;;;;22.00;97366.40;;;;110191;1254;41764;-67
2022/07/06 09:13:58;;;;;;;7.30;2.80;;;;;22.00;97364.20;;;;110530;1253;41277;-67
2022/07/06 09:16:29;;;;;;;6.90;2.90;;;;;22.00;97365.40;;;;110470;1254;41267;-67
2022/07/06 09:19:09;;;;;;;7.00;2.60;;;;;22.14;97364.00;;;;110469;1253;41176;-67
2022/07/06 09:21:39;;;;;;;5.50;2.10;;;;;22.28;97361.80;;;;110374;1255;41134;-67
2022/07/06 09:24:10;;;;;;;5.30;2.30;;;;;22.30;97359.20;;;;110503;1254;42494;-68
2022/07/06 09:26:40;;;;;;;5.50;2.30;;;;;22.40;97357.60;;;;110509;1253;41876;-66
2022/07/06 09:29:10;;;;;;;6.40;2.30;;;;;22.50;97358.80;;;;110526;1253;41171;-68
2022/07/06 09:31:40;;;;;;;7.40;2.90;;;;;22.58;97360.80;;;;110536;1254;41171;-68
2022/07/06 09:34:12;;;;;;;5.00;2.10;;;;;22.60;97360.20;;;;110494;1254;41632;-66
2022/07/06 09:36:44;;;;;;;4.30;2.00;;;;;22.52;97359.40;;;;110542;1253;42031;-68
2022/07/06 09:39:28;;;;;;;4.40;2.00;;;;;22.50;97359.20;;;;110518;1253;41612;-68
2022/07/06 09:41:59;;;;;;;5.60;2.30;;;;;22.60;97355.60;;;;110533;1254;41625;-68
2022/07/06 09:44:33;;;;;;;5.60;2.20;;;;;22.80;97356.60;;;;110397;1255;41176;-68
2022/07/06 09:47:05;;;;;;;4.80;2.10;;;;;22.80;97353.00;;;;110443;1255;41131;-69
2022/07/06 09:49:34;;;;;;;7.20;2.60;;;;;22.80;97359.20;;;;110510;1254;41136;-69
2022/07/06 09:52:10;;;;;;;5.70;2.40;;;;;22.90;97357.60;;;;110494;1254;41159;-66
2022/07/06 09:54:39;;;;;;;6.50;2.30;;;;;22.80;97352.80;;;;110441;1253;41951;-69
2022/07/06 09:57:09;;;;;;;6.10;2.10;;;;;22.94;97349.00;;;;110470;1254;41172;-69
2022/07/06 09:59:38;;;;;;;6.00;2.50;;;;;23.08;97348.40;;;;110523;1255;41640;-68
2022/07/06 10:02:08;;;;;;;4.80;2.20;;;;;23.26;97345.60;;;;110522;1253;41174;-68
2022/07/06 10:04:37;;;;;;;6.00;2.60;;;;;23.50;97349.60;;;;110530;1253;41760;-69
2022/07/06 10:07:07;;;;;;;5.00;2.20;;;;;23.70;97346.60;;;;110417;1254;42386;-68
2022/07/06 10:09:37;;;;;;;5.20;2.30;;;;;23.92;97337.60;;;;110408;1254;42425;-67
2022/07/06 10:12:10;;;;;;;4.70;2.10;;;;;24.36;97333.80;;;;110478;1253;41311;-67
2022/07/06 10:14:40;;;;;;;5.70;2.30;;;;;24.70;97329.20;;;;110324;1254;41199;-68
2022/07/06 10:17:12;;;;;;;4.90;2.10;;;;;25.06;97325.80;;;;110479;1254;41650;-68
2022/07/06 10:19:42;;;;;;;5.00;2.30;;;;;25.34;97326.20;;;;110474;1254;41182;-68
2022/07/06 10:22:11;;;;;;;5.00;1.90;;;;;25.50;97324.20;;;;110229;1255;41899;-69
2022/07/06 10:24:43;;;;;;;5.40;2.20;;;;;25.80;97329.20;;;;110411;1255;41635;-69
2022/07/06 10:27:13;;;;;;;4.60;2.20;;;;;26.02;97328.40;;;;110364;1254;41166;-69
2022/07/06 10:29:41;;;;;;;4.20;2.00;;;;;26.20;97329.60;;;;110444;1253;41245;-68
2022/07/06 10:32:11;;;;;;;5.60;2.00;;;;;26.20;97329.20;;;;110507;1254;41946;-70
2022/07/06 10:34:40;;;;;;;4.40;1.90;;;;;26.30;97332.60;;;;110485;1254;41614;-69
2022/07/06 10:37:32;;;;;;;4.40;1.90;;;;;26.30;97330.40;;;;110581;1254;41159;-71
2022/07/06 10:42:56;;;;;;;4.60;2.00;;;;;26.20;97325.20;;;;110474;1255;41146;-66
2022/07/06 10:45:28;;;;;;;5.20;2.10;;;;;26.10;97329.20;;;;110282;1254;41271;-68
2022/07/06 10:48:12;;;;;;;4.00;2.00;;;;;25.90;97330.40;;;;110506;1253;41613;-68
2022/07/06 10:50:52;;;;;;;6.10;2.40;;;;;25.70;97328.80;;;;110438;1255;41188;-68
2022/07/06 10:53:30;;;;;;;4.90;2.20;;;;;25.50;97329.80;;;;110486;1253;41691;-67
2022/07/06 10:56:02;;;;;;;4.90;2.10;;;;;25.30;97331.60;;;;110209;1256;41158;-68
2022/07/06 10:58:53;;;;;;;5.50;2.30;;;;;25.10;97332.20;;;;110517;1253;41583;-68
2022/07/06 11:01:28;;;;;;;5.20;2.20;;;;;24.98;97337.40;;;;110551;1253;41147;-65
2022/07/06 11:03:57;;;;;;;3.70;1.90;;;;;24.80;97336.60;;;;110526;1253;41155;-68
2022/07/06 11:06:27;;;;;;;6.20;2.20;;;;;24.62;97338.20;;;;110687;1253;42180;-69
2022/07/06 11:09:09;;;;;;;4.70;2.10;;;;;24.50;97334.40;;;;110644;1254;41627;-69
2022/07/06 11:11:45;;;;;;;4.50;2.10;;;;;24.40;97335.40;;;;110523;1255;41214;-68
2022/07/06 11:14:18;;;;;;;5.50;2.60;;;;;24.30;97337.00;;;;110605;1252;41160;-67
2022/07/06 11:16:47;;;;;;;6.00;2.40;;;;;24.26;97337.20;;;;110474;1254;41179;-67
2022/07/06 11:19:18;;;;;;;5.30;2.30;;;;;24.20;97336.80;;;;110470;1254;41467;-67
2022/07/06 11:21:59;;;;;;;6.40;2.40;;;;;24.20;97333.00;;;;110462;1254;41144;-68
2022/07/06 11:24:30;;;;;;;6.00;2.40;;;;;24.20;97334.40;;;;110368;1255;41637;-68
2022/07/06 11:27:00;;;;;;;6.40;2.30;;;;;24.20;97332.60;;;;110356;1254;41354;-67
2022/07/06 11:29:30;;;;;;;5.20;2.30;;;;;24.20;97333.00;;;;110417;1256;41164;-68
2022/07/06 11:32:03;;;;;;;6.40;2.20;;;;;24.20;97332.60;;;;110453;1256;41639;-69
2022/07/06 11:34:36;;;;;;;4.70;2.10;;;;;24.20;97329.80;;;;110470;1254;41284;-67
2022/07/06 11:37:08;;;;;;;5.10;2.30;;;;;24.20;97332.20;;;;110507;1252;41279;-68
2022/07/06 11:39:40;;;;;;;6.30;2.40;;;;;24.18;97331.00;;;;110399;1254;42058;-68
2022/07/06 11:42:10;;;;;;;6.20;2.60;;;;;24.02;97336.00;;;;110514;1254;41225;-68
2022/07/06 11:44:41;;;;;;;5.20;2.50;;;;;24.00;97338.00;;;;110342;1254;41262;-68
2022/07/06 11:47:11;;;;;;;5.20;2.60;;;;;23.88;97336.00;;;;110518;1254;41160;-68
2022/07/06 11:49:41;;;;;;;3.70;1.90;;;;;23.80;97336.40;;;;110409;1254;40925;-69
2022/07/06 11:52:12;;;;;;;4.70;2.20;;;;;23.70;97339.80;;;;110393;1255;41396;-69
2022/07/06 11:54:43;;;;;;;5.30;2.00;;;;;23.66;97338.60;;;;110516;1253;41218;-69
2022/07/06 11:57:12;;;;;;;5.60;2.20;;;;;23.56;97338.00;;;;110544;1253;41491;-69
2022/07/06 11:59:42;;;;;;;5.40;2.20;;;;;23.50;97338.00;;;;110337;1255;41588;-68
2022/07/06 12:02:14;;;;;;;4.30;1.90;;;;;23.30;97336.00;;;;110472;1254;41155;-69
2022/07/06 12:04:45;;;;;;;4.10;1.90;;;;;23.26;97335.00;;;;110519;1253;41136;-69
2022/07/06 12:07:16;;;;;;;4.90;2.10;;;;;23.28;97334.60;;;;110502;1253;42407;-68
2022/07/06 12:09:47;;;;;;;4.70;2.20;;;;;23.30;97334.20;;;;110386;1254;41719;-69
2022/07/06 12:12:17;;;;;;;;;;;;;23.30;97332.00;;;;110276;1254;41921;-70
2022/07/06 12:14:46;;;;;;;5.50;2.40;;;;;23.20;97331.40;;;;110528;1253;41192;-68
2022/07/06 12:17:16;;;;;;;6.10;2.30;;;;;23.12;97335.00;;;;110440;1253;41162;-68
2022/07/06 12:19:45;;;;;;;5.40;2.20;;;;;23.00;97342.00;;;;110514;1253;41232;-69
2022/07/06 12:22:25;;;;;;;4.50;2.10;;;;;23.00;97345.60;;;;110404;1254;41308;-69
2022/07/06 12:24:54;;;;;;;6.00;2.20;;;;;22.80;97341.60;;;;110433;1256;41617;-69
2022/07/06 12:27:23;;;;;;;5.90;2.50;;;;;22.70;97342.80;;;;110488;1254;41146;-69
2022/07/06 12:29:52;;;;;;;7.20;2.60;;;;;22.60;97339.40;;;;110503;1253;41168;-69
2022/07/06 12:32:22;;;;;;;4.90;2.10;;;;;22.60;97335.00;;;;110508;1253;41785;-67
2022/07/06 12:35:08;;;;;;;7.80;2.30;;;;;22.50;97336.00;;;;110653;1253;43042;-69